Pires Coelho — CUPM6 — position and weather

sailwx.info

Track history (hours):
 
Tides and Currents Weather Stations Pressure Air Temp Water Temp Dewpoint Dewpoint Depression Visibility Wind Speed Wind Dir Waves Ship Positions

Pires Coelho

Last reported at 2017-Jun-28 17:30 UTC. Time now 2017-Jun-28 17:38 UTC.
Position N 36°47' W 008°37'.

Length 27 m.

Type: Fishing. MMSI: 263236000.

Date/timePositionNaut miles runAvg speedWind from/ knotsBaromVisibWave heightAir tempDewpointWater temp
2017-Jun-28 17:30N 36°47' W 008°37'2 3.0
2017-Jun-28 16:59N 36°47' W 008°39'1 3.0
2017-Jun-28 16:30N 36°48' W 008°41'1 1.3
2017-Jun-28 16:01N 36°47' W 008°40'0 0.5
2017-Jun-28 15:30N 36°47' W 008°40'1 2.9
2017-Jun-28 15:00N 36°47' W 008°42'1 2.9
2017-Jun-28 14:31N 36°48' W 008°44'3 2.8
2017-Jun-28 13:30N 36°48' W 008°47'1 2.8
2017-Jun-28 13:00N 36°48' W 008°49'2 3.9
2017-Jun-28 12:30N 36°47' W 008°52'1 2.8
2017-Jun-28 12:00N 36°47' W 008°50'1 2.9
2017-Jun-28 11:30N 36°47' W 008°48'2 3.6
2017-Jun-28 11:00N 36°47' W 008°46'0 0.3
2017-Jun-28 10:30N 36°47' W 008°46'1 1.2
2017-Jun-28 10:00N 36°47' W 008°47'1 2.8
2017-Jun-28 09:30N 36°47' W 008°48'2 2.8
2017-Jun-28 08:40N 36°47' W 008°51'1 2.8
2017-Jun-28 08:28N 36°47' W 008°52'14 1.3
2017-Jun-27 21:42N 36°60' W 008°59'2 9.4
2017-Jun-27 21:30N 36°59' W 008°57'1 2.9
2017-Jun-27 21:00N 37°01' W 008°56'0 0.0
2017-Jun-27 20:30N 37°01' W 008°56'0 0.0
2017-Jun-27 20:01N 37°01' W 008°56'0 0.0
2017-Jun-27 19:30N 37°01' W 008°56'0 0.0
2017-Jun-27 19:00N 37°01' W 008°56'0 0.0
2017-Jun-27 18:30N 37°01' W 008°56'1 2.5
2017-Jun-27 18:01N 36°60' W 008°55'5 9.8
2017-Jun-27 17:31N 36°56' W 008°51'5 9.4
2017-Jun-27 17:01N 36°52' W 008°47'4 8.5
2017-Jun-27 16:31N 36°49' W 008°44'0 0.9
2017-Jun-27 16:01N 36°49' W 008°44'1 2.6
2017-Jun-27 15:31N 36°48' W 008°45'1 2.6
2017-Jun-27 14:59N 36°47' W 008°47'2 2.9
2017-Jun-27 14:24N 36°47' W 008°49'2 0.5
2017-Jun-27 09:58N 36°48' W 008°52'14 1.1
2017-Jun-26 21:46N 36°54' W 009°07'10 2.0
2017-Jun-26 16:31N 36°48' W 008°57'0 2.9
2017-Jun-26 16:30N 36°48' W 008°57'2 2.9
2017-Jun-26 15:58N 36°48' W 008°55'1 2.8
2017-Jun-26 15:29N 36°48' W 008°53'2 3.5
2017-Jun-26 15:00N 36°48' W 008°51'2 0.3
2017-Jun-26 08:55N 36°49' W 008°53'1 2.9
2017-Jun-26 08:29N 36°49' W 008°52'1 2.8
2017-Jun-26 08:00N 36°49' W 008°50'1 2.8
2017-Jun-26 07:31N 36°49' W 008°48'1 2.9
2017-Jun-26 07:00N 36°48' W 008°47'1 2.9
2017-Jun-26 06:30N 36°48' W 008°45'1 2.9
2017-Jun-26 06:00N 36°48' W 008°43'1 2.9
2017-Jun-26 05:30N 36°48' W 008°41'2 3.4
2017-Jun-26 05:00N 36°48' W 008°39'1 2.8
2017-Jun-26 04:30N 36°49' W 008°38'3 6.5
2017-Jun-26 04:00N 36°52' W 008°37'4 7.5
2017-Jun-26 03:30N 36°56' W 008°36'4 8.4
2017-Jun-26 03:00N 36°60' W 008°34'4 8.8
2017-Jun-26 02:31N 37°04' W 008°33'4 7.8
2017-Jun-26 02:00N 37°08' W 008°32'0 0.1
2017-Jun-26 01:30N 37°08' W 008°32'0 0.0
2017-Jun-26 01:00N 37°08' W 008°32'0 0.0
2017-Jun-26 00:30N 37°08' W 008°32'0 0.0
2017-Jun-26 00:00N 37°08' W 008°32'0 0.0
2017-Jun-25 23:30N 37°08' W 008°32'0 0.0
2017-Jun-25 22:58N 37°08' W 008°32'0 0.0
2017-Jun-25 22:30N 37°08' W 008°32'0 0.0
2017-Jun-25 21:58N 37°08' W 008°32'0 0.0
2017-Jun-25 21:30N 37°08' W 008°32'0 0.0
2017-Jun-25 21:00N 37°08' W 008°32'0 0.0
2017-Jun-25 20:30N 37°08' W 008°32'0 0.0
2017-Jun-25 20:00N 37°08' W 008°32'0 0.0
2017-Jun-25 19:30N 37°08' W 008°32'0 0.0
2017-Jun-25 19:00N 37°08' W 008°32'0 0.0
2017-Jun-25 18:30N 37°08' W 008°32'0 0.1
2017-Jun-25 17:58N 37°08' W 008°32'0 0.0
2017-Jun-25 17:30N 37°08' W 008°32'4 8.2
2017-Jun-25 17:00N 37°04' W 008°31'5 9.5
2017-Jun-25 16:31N 36°60' W 008°28'5 9.7
2017-Jun-25 16:00N 36°55' W 008°26'5 9.9
2017-Jun-25 15:31N 36°51' W 008°23'4 7.8
2017-Jun-25 15:00N 36°47' W 008°22'1 0.9
2017-Jun-25 14:24N 36°47' W 008°22'3 2.8
2017-Jun-25 13:30N 36°47' W 008°25'1 2.8
2017-Jun-25 13:00N 36°47' W 008°27'1 2.8
2017-Jun-25 12:30N 36°47' W 008°29'1 2.6
2017-Jun-25 12:00N 36°47' W 008°31'0 0.5
2017-Jun-25 11:30N 36°47' W 008°31'0 0.6
2017-Jun-25 11:00N 36°47' W 008°31'1 2.9
2017-Jun-25 10:30N 36°47' W 008°29'1 2.8
2017-Jun-25 10:00N 36°47' W 008°27'1 2.9
2017-Jun-25 09:30N 36°47' W 008°25'1 2.8
2017-Jun-25 09:00N 36°47' W 008°24'1 2.8
2017-Jun-25 08:31N 36°47' W 008°22'1 3.0
2017-Jun-25 08:00N 36°47' W 008°20'2 3.0
2017-Jun-25 07:30N 36°47' W 008°18'1 3.0
2017-Jun-25 07:00N 36°47' W 008°16'2 3.1
2017-Jun-25 06:30N 36°47' W 008°14'2 3.5
2017-Jun-25 06:00N 36°47' W 008°12'1 2.1
2017-Jun-25 05:31N 36°47' W 008°11'1 2.3
2017-Jun-25 05:01N 36°48' W 008°09'2 3.1
2017-Jun-25 04:30N 36°48' W 008°08'2 3.1
2017-Jun-25 04:00N 36°48' W 008°06'2 3.1
2017-Jun-25 03:31N 36°49' W 008°04'2 3.0
2017-Jun-25 03:00N 36°49' W 008°02'2 3.1
2017-Jun-25 02:30N 36°50' W 008°00'2 3.1
2017-Jun-25 02:00N 36°50' W 007°58'0 0.1
2017-Jun-25 00:15N 36°50' W 007°58'1 2.9
2017-Jun-24 23:58N 36°50' W 007°59'1 2.8
2017-Jun-24 23:31N 36°49' W 008°01'1 2.8
2017-Jun-24 23:00N 36°49' W 008°02'1 1.2
2017-Jun-24 22:30N 36°49' W 008°03'2 3.1
2017-Jun-24 22:01N 36°49' W 008°01'2 3.1
2017-Jun-24 21:28N 36°50' W 007°59'2 0.5
2017-Jun-24 18:02N 36°48' W 008°00'0 2.9
2017-Jun-24 17:58N 36°48' W 008°00'1 2.8
2017-Jun-24 17:27N 36°48' W 008°02'1 2.7
2017-Jun-24 17:00N 36°48' W 008°04'1 2.7
2017-Jun-24 16:28N 36°47' W 008°05'1 2.6
2017-Jun-24 16:00N 36°47' W 008°07'1 2.7
2017-Jun-24 15:30N 36°47' W 008°09'1 2.5
2017-Jun-24 15:00N 36°47' W 008°10'4 4.3
2017-Jun-24 14:00N 36°47' W 008°15'2 2.7
2017-Jun-24 13:24N 36°47' W 008°17'1 2.8
2017-Jun-24 13:00N 36°47' W 008°19'1 2.8
2017-Jun-24 12:29N 36°47' W 008°21'2 2.9
2017-Jun-24 11:43N 36°47' W 008°23'1 2.9
2017-Jun-24 11:28N 36°47' W 008°24'1 2.8
2017-Jun-24 11:00N 36°47' W 008°26'1 2.8
2017-Jun-24 10:30N 36°47' W 008°28'1 2.5
2017-Jun-24 10:00N 36°47' W 008°29'1 1.2
2017-Jun-24 09:30N 36°47' W 008°29'0 0.3
2017-Jun-24 09:00N 36°47' W 008°28'1 2.8
2017-Jun-24 08:30N 36°47' W 008°27'1 2.8
2017-Jun-24 08:00N 36°47' W 008°25'1 2.9
2017-Jun-24 07:30N 36°47' W 008°23'2 3.0
2017-Jun-24 06:56N 36°47' W 008°21'2 3.1
2017-Jun-24 06:24N 36°47' W 008°19'1 3.0
2017-Jun-24 05:58N 36°47' W 008°17'2 3.7
2017-Jun-24 05:30N 36°47' W 008°15'1 2.9
2017-Jun-24 05:00N 36°47' W 008°13'4 2.9
2017-Jun-24 03:45N 36°48' W 008°09'1 3.2
2017-Jun-24 03:20N 36°48' W 008°07'1 3.0
2017-Jun-24 02:54N 36°48' W 008°06'2 3.0
2017-Jun-24 02:23N 36°49' W 008°04'1 3.0
2017-Jun-24 01:58N 36°49' W 008°02'2 3.0
2017-Jun-24 01:27N 36°49' W 008°00'5 3.2
2017-Jun-24 00:01N 36°51' W 007°55'0 6.5
2017-Jun-23 23:59N 36°51' W 007°55'6 2.3
2017-Jun-23 21:22N 36°49' W 008°02'2 3.2
2017-Jun-23 20:50N 36°48' W 008°04'1 3.0
2017-Jun-23 20:21N 36°48' W 008°02'1 3.1
2017-Jun-23 20:00N 36°48' W 008°01'3 3.1
2017-Jun-23 19:10N 36°49' W 007°58'3 1.2
2017-Jun-23 16:36N 36°48' W 008°01'0 2.6
2017-Jun-23 16:30N 36°48' W 008°02'2 3.2
2017-Jun-23 16:00N 36°48' W 008°04'2 3.0
2017-Jun-23 15:30N 36°48' W 008°02'1 3.0
2017-Jun-23 15:00N 36°48' W 007°60'3 3.3
2017-Jun-23 13:58N 36°50' W 007°56'2 2.6
2017-Jun-23 13:00N 36°52' W 007°54'2 2.9
2017-Jun-23 12:19N 36°51' W 007°56'1 3.0
2017-Jun-23 11:55N 36°51' W 007°58'1 2.9
2017-Jun-23 11:26N 36°50' W 007°59'1 2.9
2017-Jun-23 11:00N 36°50' W 008°01'1 2.9
2017-Jun-23 10:30N 36°50' W 008°03'1 2.9
2017-Jun-23 10:00N 36°49' W 008°04'1 2.7
2017-Jun-23 09:30N 36°49' W 008°06'1 1.1
2017-Jun-23 09:00N 36°49' W 008°07'1 1.3
2017-Jun-23 08:31N 36°49' W 008°06'2 3.1
2017-Jun-23 08:01N 36°50' W 008°04'2 3.1
2017-Jun-23 07:30N 36°50' W 008°02'2 3.1
2017-Jun-23 07:00N 36°50' W 008°00'3 3.0
2017-Jun-23 06:02N 36°51' W 007°57'0 3.1
2017-Jun-23 05:54N 36°51' W 007°56'6 0.7
2017-Jun-22 21:11N 36°56' W 007°53'4 9.7
2017-Jun-22 20:45N 36°52' W 007°55'3 7.7
2017-Jun-22 20:19N 36°49' W 007°56'0 0.2
2017-Jun-22 19:47N 36°49' W 007°56'1 2.8
2017-Jun-22 19:23N 36°49' W 007°58'1 2.8
2017-Jun-22 18:55N 36°49' W 007°59'1 2.8
2017-Jun-22 18:24N 36°48' W 008°01'2 3.8
2017-Jun-22 17:49N 36°48' W 008°04'1 1.9
2017-Jun-22 17:06N 36°48' W 008°02'1 2.9
2017-Jun-22 16:52N 36°48' W 008°01'3 0.7
2017-Jun-22 12:49N 36°49' W 008°04'1 2.9
2017-Jun-22 12:27N 36°49' W 008°06'1 2.9
2017-Jun-22 11:58N 36°48' W 008°07'1 2.9
2017-Jun-22 11:31N 36°48' W 008°09'2 3.5
2017-Jun-22 11:01N 36°48' W 008°11'0 0.8
2017-Jun-22 10:30N 36°48' W 008°11'2 3.0
2017-Jun-22 09:58N 36°48' W 008°09'1 3.0
2017-Jun-22 09:31N 36°49' W 008°07'2 3.1
2017-Jun-22 09:00N 36°49' W 008°05'2 3.1
2017-Jun-22 08:30N 36°50' W 008°03'2 3.1
2017-Jun-22 07:57N 36°50' W 008°01'1 3.0
2017-Jun-22 07:29N 36°50' W 007°60'1 0.3
2017-Jun-22 04:17N 36°50' W 008°00'1 3.0
2017-Jun-22 03:52N 36°49' W 008°02'1 3.7
2017-Jun-22 03:29N 36°49' W 008°04'2 3.0
2017-Jun-22 02:57N 36°49' W 008°02'4 2.0
2017-Jun-22 00:45N 36°51' W 007°56'1 2.6
2017-Jun-22 00:19N 36°50' W 007°58'4 2.9
2017-Jun-21 22:55N 36°49' W 008°02'0 1.0
2017-Jun-21 22:30N 36°49' W 008°03'2 3.1
2017-Jun-21 21:47N 36°50' W 008°00'1 3.0
2017-Jun-21 21:24N 36°50' W 007°59'1 2.9
2017-Jun-21 21:00N 36°51' W 007°57'4 1.6
2017-Jun-21 18:26N 36°48' W 008°02'2 3.3
2017-Jun-21 17:54N 36°48' W 008°04'1 3.0
2017-Jun-21 17:26N 36°48' W 008°02'2 1.0
2017-Jun-21 14:57N 36°46' W 008°02'0 0.2
2017-Jun-21 14:30N 36°46' W 008°02'3 0.1
2017-Jun-20 17:34N 36°47' W 007°58'4 0.3
2017-Jun-20 05:40N 36°50' W 007°59'0 0.7
2017-Jun-20 05:02N 36°50' W 007°60'0 2.9
2017-Jun-20 04:57N 36°50' W 007°60'1 2.9
2017-Jun-20 04:30N 36°49' W 008°02'1 2.9
2017-Jun-20 04:00N 36°49' W 008°03'1 3.0
2017-Jun-20 03:30N 36°49' W 008°05'1 3.0
2017-Jun-20 03:00N 36°48' W 008°07'1 2.9
2017-Jun-20 02:30N 36°48' W 008°09'1 2.9
2017-Jun-20 02:00N 36°48' W 008°10'2 3.1
2017-Jun-20 01:30N 36°47' W 008°12'1 2.0
2017-Jun-20 01:00N 36°47' W 008°11'2 3.0
2017-Jun-20 00:30N 36°48' W 008°09'2 3.0
2017-Jun-20 00:00N 36°48' W 008°07'2 3.1
2017-Jun-19 23:29N 36°48' W 008°05'1 3.0
2017-Jun-19 23:00N 36°49' W 008°04'2 3.0
2017-Jun-19 22:30N 36°49' W 008°02'3 3.0
2017-Jun-19 21:40N 36°50' W 007°59'1 0.2
2017-Jun-19 19:25N 36°50' W 007°58'2 3.0
2017-Jun-19 18:49N 36°50' W 008°00'1 3.0
2017-Jun-19 18:28N 36°49' W 008°02'2 3.6
2017-Jun-19 17:58N 36°49' W 008°04'3 4.4
2017-Jun-19 17:20N 36°49' W 008°00'3 1.0
2017-Jun-19 14:52N 36°50' W 007°57'3 2.8
2017-Jun-19 13:40N 36°49' W 008°01'1 2.8
2017-Jun-19 13:22N 36°49' W 008°03'1 2.5
2017-Jun-19 12:59N 36°49' W 008°03'1 3.0
2017-Jun-19 12:30N 36°50' W 008°02'5 3.0
2017-Jun-19 10:51N 36°51' W 007°56'3 1.1
2017-Jun-19 08:24N 36°50' W 007°59'1 2.9
2017-Jun-19 08:00N 36°50' W 008°01'1 2.9
2017-Jun-19 07:30N 36°50' W 008°02'1 2.9
2017-Jun-19 06:59N 36°49' W 008°04'1 2.9
2017-Jun-19 06:30N 36°49' W 008°06'1 2.9
2017-Jun-19 06:00N 36°48' W 008°08'1 2.8
2017-Jun-19 05:30N 36°48' W 008°09'0 0.6
2017-Jun-19 05:00N 36°48' W 008°09'1 1.0
2017-Jun-19 04:31N 36°48' W 008°09'2 3.0
2017-Jun-19 04:00N 36°48' W 008°07'2 3.0
2017-Jun-19 03:31N 36°48' W 008°05'1 3.0
2017-Jun-19 03:01N 36°49' W 008°03'2 3.1
2017-Jun-19 02:31N 36°49' W 008°01'2 3.0
2017-Jun-19 02:01N 36°50' W 007°60'2 3.0
2017-Jun-19 01:29N 36°50' W 007°58'3 3.1
2017-Jun-19 00:26N 36°51' W 007°54'  
Track history (hours):
 
Tides and Currents Weather Stations Pressure Air Temp Water Temp Dewpoint Dewpoint Depression Visibility Wind Speed Wind Dir Waves Ship Positions

Pires Coelho

Last reported at 2017-Jun-28 17:30 UTC. Time now 2017-Jun-28 17:38 UTC.
Position N 36°47' W 008°37'.

Length 27 m.

Type: Fishing. MMSI: 263236000.

Date/timePositionNaut miles runAvg speedWind from/ knotsBaromVisibWave heightAir tempDewpointWater temp
2017-Jun-28 17:30N 36°47' W 008°37'2 3.0
2017-Jun-28 16:59N 36°47' W 008°39'1 3.0
2017-Jun-28 16:30N 36°48' W 008°41'1 1.3
2017-Jun-28 16:01N 36°47' W 008°40'0 0.5
2017-Jun-28 15:30N 36°47' W 008°40'1 2.9
2017-Jun-28 15:00N 36°47' W 008°42'1 2.9
2017-Jun-28 14:31N 36°48' W 008°44'3 2.8
2017-Jun-28 13:30N 36°48' W 008°47'1 2.8
2017-Jun-28 13:00N 36°48' W 008°49'2 3.9
2017-Jun-28 12:30N 36°47' W 008°52'1 2.8
2017-Jun-28 12:00N 36°47' W 008°50'1 2.9
2017-Jun-28 11:30N 36°47' W 008°48'2 3.6
2017-Jun-28 11:00N 36°47' W 008°46'0 0.3
2017-Jun-28 10:30N 36°47' W 008°46'1 1.2
2017-Jun-28 10:00N 36°47' W 008°47'1 2.8
2017-Jun-28 09:30N 36°47' W 008°48'2 2.8
2017-Jun-28 08:40N 36°47' W 008°51'1 2.8
2017-Jun-28 08:28N 36°47' W 008°52'14 1.3
2017-Jun-27 21:42N 36°60' W 008°59'2 9.4
2017-Jun-27 21:30N 36°59' W 008°57'1 2.9
2017-Jun-27 21:00N 37°01' W 008°56'0 0.0
2017-Jun-27 20:30N 37°01' W 008°56'0 0.0
2017-Jun-27 20:01N 37°01' W 008°56'0 0.0
2017-Jun-27 19:30N 37°01' W 008°56'0 0.0
2017-Jun-27 19:00N 37°01' W 008°56'0 0.0
2017-Jun-27 18:30N 37°01' W 008°56'1 2.5
2017-Jun-27 18:01N 36°60' W 008°55'5 9.8
2017-Jun-27 17:31N 36°56' W 008°51'5 9.4
2017-Jun-27 17:01N 36°52' W 008°47'4 8.5
2017-Jun-27 16:31N 36°49' W 008°44'0 0.9
2017-Jun-27 16:01N 36°49' W 008°44'1 2.6
2017-Jun-27 15:31N 36°48' W 008°45'1 2.6
2017-Jun-27 14:59N 36°47' W 008°47'2 2.9
2017-Jun-27 14:24N 36°47' W 008°49'2 0.5
2017-Jun-27 09:58N 36°48' W 008°52'14 1.1
2017-Jun-26 21:46N 36°54' W 009°07'10 2.0
2017-Jun-26 16:31N 36°48' W 008°57'0 2.9
2017-Jun-26 16:30N 36°48' W 008°57'2 2.9
2017-Jun-26 15:58N 36°48' W 008°55'1 2.8
2017-Jun-26 15:29N 36°48' W 008°53'2 3.5
2017-Jun-26 15:00N 36°48' W 008°51'2 0.3
2017-Jun-26 08:55N 36°49' W 008°53'1 2.9
2017-Jun-26 08:29N 36°49' W 008°52'1 2.8
2017-Jun-26 08:00N 36°49' W 008°50'1 2.8
2017-Jun-26 07:31N 36°49' W 008°48'1 2.9
2017-Jun-26 07:00N 36°48' W 008°47'1 2.9
2017-Jun-26 06:30N 36°48' W 008°45'1 2.9
2017-Jun-26 06:00N 36°48' W 008°43'1 2.9
2017-Jun-26 05:30N 36°48' W 008°41'2 3.4
2017-Jun-26 05:00N 36°48' W 008°39'1 2.8
2017-Jun-26 04:30N 36°49' W 008°38'3 6.5
2017-Jun-26 04:00N 36°52' W 008°37'4 7.5
2017-Jun-26 03:30N 36°56' W 008°36'4 8.4
2017-Jun-26 03:00N 36°60' W 008°34'4 8.8
2017-Jun-26 02:31N 37°04' W 008°33'4 7.8
2017-Jun-26 02:00N 37°08' W 008°32'0 0.1
2017-Jun-26 01:30N 37°08' W 008°32'0 0.0
2017-Jun-26 01:00N 37°08' W 008°32'0 0.0
2017-Jun-26 00:30N 37°08' W 008°32'0 0.0
2017-Jun-26 00:00N 37°08' W 008°32'0 0.0
2017-Jun-25 23:30N 37°08' W 008°32'0 0.0
2017-Jun-25 22:58N 37°08' W 008°32'0 0.0
2017-Jun-25 22:30N 37°08' W 008°32'0 0.0
2017-Jun-25 21:58N 37°08' W 008°32'0 0.0
2017-Jun-25 21:30N 37°08' W 008°32'0 0.0
2017-Jun-25 21:00N 37°08' W 008°32'0 0.0
2017-Jun-25 20:30N 37°08' W 008°32'0 0.0
2017-Jun-25 20:00N 37°08' W 008°32'0 0.0
2017-Jun-25 19:30N 37°08' W 008°32'0 0.0
2017-Jun-25 19:00N 37°08' W 008°32'0 0.0
2017-Jun-25 18:30N 37°08' W 008°32'0 0.1
2017-Jun-25 17:58N 37°08' W 008°32'0 0.0
2017-Jun-25 17:30N 37°08' W 008°32'4 8.2
2017-Jun-25 17:00N 37°04' W 008°31'5 9.5
2017-Jun-25 16:31N 36°60' W 008°28'5 9.7
2017-Jun-25 16:00N 36°55' W 008°26'5 9.9
2017-Jun-25 15:31N 36°51' W 008°23'4 7.8
2017-Jun-25 15:00N 36°47' W 008°22'1 0.9
2017-Jun-25 14:24N 36°47' W 008°22'3 2.8
2017-Jun-25 13:30N 36°47' W 008°25'1 2.8
2017-Jun-25 13:00N 36°47' W 008°27'1 2.8
2017-Jun-25 12:30N 36°47' W 008°29'1 2.6
2017-Jun-25 12:00N 36°47' W 008°31'0 0.5
2017-Jun-25 11:30N 36°47' W 008°31'0 0.6
2017-Jun-25 11:00N 36°47' W 008°31'1 2.9
2017-Jun-25 10:30N 36°47' W 008°29'1 2.8
2017-Jun-25 10:00N 36°47' W 008°27'1 2.9
2017-Jun-25 09:30N 36°47' W 008°25'1 2.8
2017-Jun-25 09:00N 36°47' W 008°24'1 2.8
2017-Jun-25 08:31N 36°47' W 008°22'1 3.0
2017-Jun-25 08:00N 36°47' W 008°20'2 3.0
2017-Jun-25 07:30N 36°47' W 008°18'1 3.0
2017-Jun-25 07:00N 36°47' W 008°16'2 3.1
2017-Jun-25 06:30N 36°47' W 008°14'2 3.5
2017-Jun-25 06:00N 36°47' W 008°12'1 2.1
2017-Jun-25 05:31N 36°47' W 008°11'1 2.3
2017-Jun-25 05:01N 36°48' W 008°09'2 3.1
2017-Jun-25 04:30N 36°48' W 008°08'2 3.1
2017-Jun-25 04:00N 36°48' W 008°06'2 3.1
2017-Jun-25 03:31N 36°49' W 008°04'2 3.0
2017-Jun-25 03:00N 36°49' W 008°02'2 3.1
2017-Jun-25 02:30N 36°50' W 008°00'2 3.1
2017-Jun-25 02:00N 36°50' W 007°58'0 0.1
2017-Jun-25 00:15N 36°50' W 007°58'1 2.9
2017-Jun-24 23:58N 36°50' W 007°59'1 2.8
2017-Jun-24 23:31N 36°49' W 008°01'1 2.8
2017-Jun-24 23:00N 36°49' W 008°02'1 1.2
2017-Jun-24 22:30N 36°49' W 008°03'2 3.1
2017-Jun-24 22:01N 36°49' W 008°01'2 3.1
2017-Jun-24 21:28N 36°50' W 007°59'2 0.5
2017-Jun-24 18:02N 36°48' W 008°00'0 2.9
2017-Jun-24 17:58N 36°48' W 008°00'1 2.8
2017-Jun-24 17:27N 36°48' W 008°02'1 2.7
2017-Jun-24 17:00N 36°48' W 008°04'1 2.7
2017-Jun-24 16:28N 36°47' W 008°05'1 2.6
2017-Jun-24 16:00N 36°47' W 008°07'1 2.7
2017-Jun-24 15:30N 36°47' W 008°09'1 2.5
2017-Jun-24 15:00N 36°47' W 008°10'4 4.3
2017-Jun-24 14:00N 36°47' W 008°15'2 2.7
2017-Jun-24 13:24N 36°47' W 008°17'1 2.8
2017-Jun-24 13:00N 36°47' W 008°19'1 2.8
2017-Jun-24 12:29N 36°47' W 008°21'2 2.9
2017-Jun-24 11:43N 36°47' W 008°23'1 2.9
2017-Jun-24 11:28N 36°47' W 008°24'1 2.8
2017-Jun-24 11:00N 36°47' W 008°26'1 2.8
2017-Jun-24 10:30N 36°47' W 008°28'1 2.5
2017-Jun-24 10:00N 36°47' W 008°29'1 1.2
2017-Jun-24 09:30N 36°47' W 008°29'0 0.3
2017-Jun-24 09:00N 36°47' W 008°28'1 2.8
2017-Jun-24 08:30N 36°47' W 008°27'1 2.8
2017-Jun-24 08:00N 36°47' W 008°25'1 2.9
2017-Jun-24 07:30N 36°47' W 008°23'2 3.0
2017-Jun-24 06:56N 36°47' W 008°21'2 3.1
2017-Jun-24 06:24N 36°47' W 008°19'1 3.0
2017-Jun-24 05:58N 36°47' W 008°17'2 3.7
2017-Jun-24 05:30N 36°47' W 008°15'1 2.9
2017-Jun-24 05:00N 36°47' W 008°13'4 2.9
2017-Jun-24 03:45N 36°48' W 008°09'1 3.2
2017-Jun-24 03:20N 36°48' W 008°07'1 3.0
2017-Jun-24 02:54N 36°48' W 008°06'2 3.0
2017-Jun-24 02:23N 36°49' W 008°04'1 3.0
2017-Jun-24 01:58N 36°49' W 008°02'2 3.0
2017-Jun-24 01:27N 36°49' W 008°00'5 3.2
2017-Jun-24 00:01N 36°51' W 007°55'0 6.5
2017-Jun-23 23:59N 36°51' W 007°55'6 2.3
2017-Jun-23 21:22N 36°49' W 008°02'2 3.2
2017-Jun-23 20:50N 36°48' W 008°04'1 3.0
2017-Jun-23 20:21N 36°48' W 008°02'1 3.1
2017-Jun-23 20:00N 36°48' W 008°01'3 3.1
2017-Jun-23 19:10N 36°49' W 007°58'3 1.2
2017-Jun-23 16:36N 36°48' W 008°01'0 2.6
2017-Jun-23 16:30N 36°48' W 008°02'2 3.2
2017-Jun-23 16:00N 36°48' W 008°04'2 3.0
2017-Jun-23 15:30N 36°48' W 008°02'1 3.0
2017-Jun-23 15:00N 36°48' W 007°60'3 3.3
2017-Jun-23 13:58N 36°50' W 007°56'2 2.6
2017-Jun-23 13:00N 36°52' W 007°54'2 2.9
2017-Jun-23 12:19N 36°51' W 007°56'1 3.0
2017-Jun-23 11:55N 36°51' W 007°58'1 2.9
2017-Jun-23 11:26N 36°50' W 007°59'1 2.9
2017-Jun-23 11:00N 36°50' W 008°01'1 2.9
2017-Jun-23 10:30N 36°50' W 008°03'1 2.9
2017-Jun-23 10:00N 36°49' W 008°04'1 2.7
2017-Jun-23 09:30N 36°49' W 008°06'1 1.1
2017-Jun-23 09:00N 36°49' W 008°07'1 1.3
2017-Jun-23 08:31N 36°49' W 008°06'2 3.1
2017-Jun-23 08:01N 36°50' W 008°04'2 3.1
2017-Jun-23 07:30N 36°50' W 008°02'2 3.1
2017-Jun-23 07:00N 36°50' W 008°00'3 3.0
2017-Jun-23 06:02N 36°51' W 007°57'0 3.1
2017-Jun-23 05:54N 36°51' W 007°56'6 0.7
2017-Jun-22 21:11N 36°56' W 007°53'4 9.7
2017-Jun-22 20:45N 36°52' W 007°55'3 7.7
2017-Jun-22 20:19N 36°49' W 007°56'0 0.2
2017-Jun-22 19:47N 36°49' W 007°56'1 2.8
2017-Jun-22 19:23N 36°49' W 007°58'1 2.8
2017-Jun-22 18:55N 36°49' W 007°59'1 2.8
2017-Jun-22 18:24N 36°48' W 008°01'2 3.8
2017-Jun-22 17:49N 36°48' W 008°04'1 1.9
2017-Jun-22 17:06N 36°48' W 008°02'1 2.9
2017-Jun-22 16:52N 36°48' W 008°01'3 0.7
2017-Jun-22 12:49N 36°49' W 008°04'1 2.9
2017-Jun-22 12:27N 36°49' W 008°06'1 2.9
2017-Jun-22 11:58N 36°48' W 008°07'1 2.9
2017-Jun-22 11:31N 36°48' W 008°09'2 3.5
2017-Jun-22 11:01N 36°48' W 008°11'0 0.8
2017-Jun-22 10:30N 36°48' W 008°11'2 3.0
2017-Jun-22 09:58N 36°48' W 008°09'1 3.0
2017-Jun-22 09:31N 36°49' W 008°07'2 3.1
2017-Jun-22 09:00N 36°49' W 008°05'2 3.1
2017-Jun-22 08:30N 36°50' W 008°03'2 3.1
2017-Jun-22 07:57N 36°50' W 008°01'1 3.0
2017-Jun-22 07:29N 36°50' W 007°60'1 0.3
2017-Jun-22 04:17N 36°50' W 008°00'1 3.0
2017-Jun-22 03:52N 36°49' W 008°02'1 3.7
2017-Jun-22 03:29N 36°49' W 008°04'2 3.0
2017-Jun-22 02:57N 36°49' W 008°02'4 2.0
2017-Jun-22 00:45N 36°51' W 007°56'1 2.6
2017-Jun-22 00:19N 36°50' W 007°58'4 2.9
2017-Jun-21 22:55N 36°49' W 008°02'0 1.0
2017-Jun-21 22:30N 36°49' W 008°03'2 3.1
2017-Jun-21 21:47N 36°50' W 008°00'1 3.0
2017-Jun-21 21:24N 36°50' W 007°59'1 2.9
2017-Jun-21 21:00N 36°51' W 007°57'4 1.6
2017-Jun-21 18:26N 36°48' W 008°02'2 3.3
2017-Jun-21 17:54N 36°48' W 008°04'1 3.0
2017-Jun-21 17:26N 36°48' W 008°02'2 1.0
2017-Jun-21 14:57N 36°46' W 008°02'0 0.2
2017-Jun-21 14:30N 36°46' W 008°02'3 0.1
2017-Jun-20 17:34N 36°47' W 007°58'4 0.3
2017-Jun-20 05:40N 36°50' W 007°59'0 0.7
2017-Jun-20 05:02N 36°50' W 007°60'0 2.9
2017-Jun-20 04:57N 36°50' W 007°60'1 2.9
2017-Jun-20 04:30N 36°49' W 008°02'1 2.9
2017-Jun-20 04:00N 36°49' W 008°03'1 3.0
2017-Jun-20 03:30N 36°49' W 008°05'1 3.0
2017-Jun-20 03:00N 36°48' W 008°07'1 2.9
2017-Jun-20 02:30N 36°48' W 008°09'1 2.9
2017-Jun-20 02:00N 36°48' W 008°10'2 3.1
2017-Jun-20 01:30N 36°47' W 008°12'1 2.0
2017-Jun-20 01:00N 36°47' W 008°11'2 3.0
2017-Jun-20 00:30N 36°48' W 008°09'2 3.0
2017-Jun-20 00:00N 36°48' W 008°07'2 3.1
2017-Jun-19 23:29N 36°48' W 008°05'1 3.0
2017-Jun-19 23:00N 36°49' W 008°04'2 3.0
2017-Jun-19 22:30N 36°49' W 008°02'3 3.0
2017-Jun-19 21:40N 36°50' W 007°59'1 0.2
2017-Jun-19 19:25N 36°50' W 007°58'2 3.0
2017-Jun-19 18:49N 36°50' W 008°00'1 3.0
2017-Jun-19 18:28N 36°49' W 008°02'2 3.6
2017-Jun-19 17:58N 36°49' W 008°04'3 4.4
2017-Jun-19 17:20N 36°49' W 008°00'3 1.0
2017-Jun-19 14:52N 36°50' W 007°57'3 2.8
2017-Jun-19 13:40N 36°49' W 008°01'1 2.8
2017-Jun-19 13:22N 36°49' W 008°03'1 2.5
2017-Jun-19 12:59N 36°49' W 008°03'1 3.0
2017-Jun-19 12:30N 36°50' W 008°02'5 3.0
2017-Jun-19 10:51N 36°51' W 007°56'3 1.1
2017-Jun-19 08:24N 36°50' W 007°59'1 2.9
2017-Jun-19 08:00N 36°50' W 008°01'1 2.9
2017-Jun-19 07:30N 36°50' W 008°02'1 2.9
2017-Jun-19 06:59N 36°49' W 008°04'1 2.9
2017-Jun-19 06:30N 36°49' W 008°06'1 2.9
2017-Jun-19 06:00N 36°48' W 008°08'1 2.8
2017-Jun-19 05:30N 36°48' W 008°09'0 0.6
2017-Jun-19 05:00N 36°48' W 008°09'1 1.0
2017-Jun-19 04:31N 36°48' W 008°09'2 3.0
2017-Jun-19 04:00N 36°48' W 008°07'2 3.0
2017-Jun-19 03:31N 36°48' W 008°05'1 3.0
2017-Jun-19 03:01N 36°49' W 008°03'2 3.1
2017-Jun-19 02:31N 36°49' W 008°01'2 3.0
2017-Jun-19 02:01N 36°50' W 007°60'2 3.0
2017-Jun-19 01:29N 36°50' W 007°58'3 3.1
2017-Jun-19 00:26N 36°51' W 007°54'  

Dump ship's entire track history